Time;durP1;ratioP1;P1;durP2;ratioP2;P2;SDS_P1;SDS_P2;PMS_P1;PMS_P2;Temp;Humidity;BMP_temperature;BMP_pressure;BME280_temperature;BME280_humidity;BME280_pressure;Samples;Min_cycle;Max_cycle;Signal;HPM_P1;HPM_P2
2022/08/26 00:02:11;;;;;;;3.73;3.53;;;28.50;60.50;;;;;;5054693;28;20534;-68
2022/08/26 00:04:41;;;;;;;4.63;4.37;;;28.40;60.50;;;;;;5054398;28;20486;-69
2022/08/26 00:07:10;;;;;;;3.87;3.67;;;28.40;60.50;;;;;;5054888;28;20434;-69
2022/08/26 00:09:38;;;;;;;4.40;4.10;;;28.50;60.50;;;;;;5070465;28;20474;-69
2022/08/26 00:12:09;;;;;;;4.17;3.87;;;28.40;60.50;;;;;;5075172;28;20486;-69
2022/08/26 00:14:41;;;;;;;4.40;4.10;;;28.40;60.50;;;;;;5074577;28;20437;-69
2022/08/26 00:17:09;;;;;;;4.80;4.50;;;28.40;60.50;;;;;;5073400;28;20853;-69
2022/08/26 00:19:38;;;;;;;4.47;4.17;;;28.40;60.50;;;;;;5058409;28;20861;-69
2022/08/26 00:22:08;;;;;;;4.33;4.03;;;28.40;60.50;;;;;;5057644;28;20447;-69
2022/08/26 00:24:38;;;;;;;4.20;3.90;;;28.40;60.50;;;;;;5074459;28;20464;-69
2022/08/26 00:27:15;;;;;;;3.77;3.57;;;28.40;60.50;;;;;;5065517;28;20447;-69
2022/08/26 00:29:44;;;;;;;4.13;3.93;;;28.40;60.60;;;;;;5035316;28;20447;-69
2022/08/26 00:32:12;;;;;;;4.70;4.30;;;28.40;60.50;;;;;;5034682;28;20601;-70
2022/08/26 00:34:41;;;;;;;5.20;4.73;;;28.40;60.50;;;;;;5039076;28;20489;-69
2022/08/26 00:37:11;;;;;;;4.20;3.90;;;28.40;60.60;;;;;;5057089;28;20478;-69
2022/08/26 00:39:43;;;;;;;3.97;3.67;;;28.40;60.60;;;;;;5055997;28;20781;-69
2022/08/26 00:42:12;;;;;;;4.17;3.97;;;28.40;60.60;;;;;;5074696;28;20513;-71
2022/08/26 00:44:41;;;;;;;4.30;4.00;;;28.40;60.60;;;;;;5074081;28;20939;-69
2022/08/26 00:47:16;;;;;;;4.60;4.30;;;28.40;60.60;;;;;;5073992;28;20456;-69
2022/08/26 00:49:47;;;;;;;4.30;4.00;;;28.40;60.60;;;;;;5073800;28;21015;-69
2022/08/26 00:52:19;;;;;;;4.37;4.07;;;28.40;60.60;;;;;;5074141;28;20469;-69
2022/08/26 00:54:53;;;;;;;4.70;4.40;;;28.40;60.60;;;;;;5069143;28;20495;-69
2022/08/26 00:57:22;;;;;;;4.23;3.83;;;28.40;60.60;;;;;;5053865;28;20496;-69
2022/08/26 00:59:54;;;;;;;4.87;4.57;;;28.40;60.70;;;;;;5048511;28;20547;-68
2022/08/26 01:02:22;;;;;;;4.60;4.30;;;28.40;60.70;;;;;;5060714;28;20452;-68
2022/08/26 01:04:53;;;;;;;4.50;4.20;;;28.40;60.70;;;;;;5053444;28;20494;-69
2022/08/26 01:07:26;;;;;;;5.13;4.83;;;28.40;60.70;;;;;;5053892;28;20473;-70
2022/08/26 01:09:55;;;;;;;4.70;4.40;;;28.40;60.70;;;;;;5053739;28;20422;-69
2022/08/26 01:12:24;;;;;;;4.73;4.43;;;28.40;60.70;;;;;;5057131;28;20443;-70
2022/08/26 01:14:53;;;;;;;4.67;4.40;;;28.30;60.70;;;;;;5033729;28;20495;-70
2022/08/26 01:17:21;;;;;;;4.47;4.07;;;28.30;60.70;;;;;;5056189;28;20548;-68
2022/08/26 01:19:52;;;;;;;4.30;4.00;;;28.30;60.70;;;;;;5072996;28;20992;-69
2022/08/26 01:22:25;;;;;;;4.57;4.27;;;28.30;60.70;;;;;;5073221;28;20472;-69
2022/08/26 01:24:58;;;;;;;4.27;3.97;;;28.30;60.80;;;;;;5073895;28;20459;-69
2022/08/26 01:27:30;;;;;;;4.60;4.30;;;28.30;60.80;;;;;;5063641;28;21021;-69
2022/08/26 01:30:01;;;;;;;4.33;4.03;;;28.30;60.80;;;;;;5062395;28;21055;-68
2022/08/26 01:32:33;;;;;;;4.63;4.23;;;28.30;60.80;;;;;;5072866;28;20467;-71
2022/08/26 01:35:02;;;;;;;4.43;4.23;;;28.30;60.80;;;;;;5073360;28;20830;-69
2022/08/26 01:37:35;;;;;;;4.00;3.77;;;28.30;60.80;;;;;;5073178;28;20438;-68
2022/08/26 01:40:07;;;;;;;4.40;4.10;;;28.30;60.80;;;;;;5073536;28;20455;-69
2022/08/26 01:42:35;;;;;;;5.00;4.70;;;28.30;60.80;;;;;;5052873;28;20444;-69
2022/08/26 01:45:09;;;;;;;4.60;4.30;;;28.30;60.80;;;;;;5056323;28;20569;-69
2022/08/26 01:47:39;;;;;;;4.33;4.03;;;28.30;60.80;;;;;;5046442;28;20449;-70
2022/08/26 01:50:13;;;;;;;4.90;4.60;;;28.30;60.80;;;;;;5032654;28;20438;-69
2022/08/26 01:52:56;;;;;;;4.53;4.23;;;28.30;60.80;;;;;;5044959;28;20450;-69
2022/08/26 01:55:26;;;;;;;4.80;4.50;;;28.30;60.90;;;;;;5038376;28;20974;-69
2022/08/26 01:58:04;;;;;;;4.30;4.00;;;28.30;60.90;;;;;;5052173;28;20457;-69
2022/08/26 02:00:34;;;;;;;5.23;4.93;;;28.30;60.90;;;;;;5032922;28;20986;-69
2022/08/26 02:03:16;;;;;;;4.70;4.30;;;28.20;60.90;;;;;;5041183;28;20784;-68
2022/08/26 02:05:47;;;;;;;4.43;4.13;;;28.20;60.90;;;;;;5051361;28;20479;-68
2022/08/26 02:08:19;;;;;;;4.40;4.10;;;28.20;60.90;;;;;;5052306;28;20433;-69
2022/08/26 02:10:54;;;;;;;5.70;5.30;;;28.20;60.90;;;;;;5060038;28;20431;-69
2022/08/26 02:13:26;;;;;;;5.10;4.80;;;28.20;61.00;;;;;;5072022;28;20439;-69
2022/08/26 02:15:55;;;;;;;5.23;4.83;;;28.20;60.90;;;;;;5072356;28;20540;-69
2022/08/26 02:18:25;;;;;;;4.47;4.13;;;28.20;60.90;;;;;;5071667;28;20417;-71
2022/08/26 02:20:56;;;;;;;4.77;4.43;;;28.20;61.00;;;;;;5072262;28;20768;-69
2022/08/26 02:23:24;;;;;;;4.93;4.63;;;28.20;61.00;;;;;;5062387;28;20997;-69
2022/08/26 02:25:59;;;;;;;5.13;4.83;;;28.20;61.00;;;;;;5052685;28;20567;-69
2022/08/26 02:28:33;;;;;;;5.63;5.20;;;28.20;61.00;;;;;;5054559;28;20464;-71
2022/08/26 02:31:01;;;;;;;5.07;4.77;;;28.20;61.00;;;;;;5071987;28;20462;-69
2022/08/26 02:33:32;;;;;;;5.60;5.20;;;28.20;61.00;;;;;;5071552;28;20440;-69
2022/08/26 02:36:05;;;;;;;4.87;4.57;;;28.20;61.00;;;;;;5072215;28;20420;-69
2022/08/26 02:38:34;;;;;;;4.80;4.50;;;28.20;61.00;;;;;;5037273;28;20449;-69
2022/08/26 02:41:09;;;;;;;5.43;5.13;;;28.20;61.00;;;;;;5032368;28;20435;-70
2022/08/26 02:43:37;;;;;;;4.73;4.40;;;28.20;61.10;;;;;;5043131;28;20439;-68
2022/08/26 02:46:08;;;;;;;5.60;5.20;;;28.20;61.10;;;;;;5072000;28;20525;-69
2022/08/26 02:48:36;;;;;;;4.73;4.43;;;28.10;61.10;;;;;;5063991;28;20445;-69
2022/08/26 02:51:07;;;;;;;5.40;4.93;;;28.10;61.10;;;;;;5051837;28;20530;-69
2022/08/26 02:53:35;;;;;;;5.10;4.70;;;28.10;61.10;;;;;;5047402;28;20476;-69
2022/08/26 02:56:09;;;;;;;5.00;4.70;;;28.10;61.10;;;;;;5052471;28;20502;-72
2022/08/26 02:58:37;;;;;;;5.47;5.07;;;28.10;61.10;;;;;;5050839;28;20489;-69
2022/08/26 03:01:19;;;;;;;4.40;4.20;;;28.10;61.10;;;;;;5051791;28;20966;-68
2022/08/26 03:03:48;;;;;;;4.90;4.60;;;28.10;61.20;;;;;;5051660;28;20538;-69
2022/08/26 03:06:17;;;;;;;6.20;5.60;;;28.10;61.10;;;;;;5051291;28;20958;-69
2022/08/26 03:08:46;;;;;;;5.30;5.00;;;28.10;61.20;;;;;;5051623;28;20454;-69
2022/08/26 03:11:16;;;;;;;5.40;5.00;;;28.10;61.20;;;;;;5052123;28;20524;-70
2022/08/26 03:13:45;;;;;;;4.27;4.00;;;28.10;61.20;;;;;;5057738;28;20856;-70
2022/08/26 03:16:13;;;;;;;4.83;4.53;;;28.10;61.20;;;;;;5068130;28;20553;-69
2022/08/26 03:18:42;;;;;;;5.00;4.70;;;28.10;61.20;;;;;;5031420;28;20441;-69
2022/08/26 03:21:19;;;;;;;5.37;5.07;;;28.10;61.20;;;;;;5068376;28;20447;-69
2022/08/26 03:23:48;;;;;;;5.90;5.50;;;28.10;61.20;;;;;;5071260;28;20448;-73
2022/08/26 03:26:18;;;;;;;4.83;4.53;;;28.10;61.20;;;;;;5068832;28;20860;-69
2022/08/26 03:31:33;;;;;;;5.20;4.90;;;28.10;61.30;;;;;;5031145;28;20428;-68
2022/08/26 03:34:02;;;;;;;5.33;5.03;;;28.00;61.30;;;;;;5031518;28;20417;-69
2022/08/26 03:36:31;;;;;;;5.20;4.90;;;28.00;61.30;;;;;;5031629;28;20476;-68
2022/08/26 03:39:02;;;;;;;5.63;5.23;;;28.00;61.30;;;;;;5053845;28;20772;-70
2022/08/26 03:41:33;;;;;;;4.60;4.30;;;28.00;61.30;;;;;;5072007;28;20483;-69
2022/08/26 03:44:02;;;;;;;4.70;4.40;;;28.00;61.30;;;;;;5071452;28;20422;-68
2022/08/26 03:46:31;;;;;;;5.50;5.20;;;28.00;61.30;;;;;;5070882;28;21043;-69
2022/08/26 03:49:01;;;;;;;6.03;5.63;;;28.00;61.30;;;;;;5071028;28;20480;-70
2022/08/26 03:51:31;;;;;;;5.70;5.23;;;28.00;61.30;;;;;;5071691;28;20448;-69
2022/08/26 03:54:01;;;;;;;5.33;4.93;;;28.00;61.40;;;;;;5037787;28;20491;-69
2022/08/26 03:56:32;;;;;;;5.73;5.33;;;28.00;61.30;;;;;;5072003;28;20440;-69
2022/08/26 03:59:01;;;;;;;5.10;4.80;;;28.00;61.40;;;;;;5054753;28;20509;-68
2022/08/26 04:01:29;;;;;;;5.17;4.77;;;28.00;61.40;;;;;;5055855;28;20476;-69
2022/08/26 04:03:58;;;;;;;5.60;5.20;;;28.00;61.40;;;;;;5034777;28;20891;-71
2022/08/26 04:06:29;;;;;;;4.93;4.63;;;28.00;61.40;;;;;;5042805;28;20460;-69
2022/08/26 04:09:00;;;;;;;5.27;4.97;;;28.00;61.40;;;;;;5054988;28;20463;-70
2022/08/26 04:11:34;;;;;;;5.10;4.80;;;28.00;61.40;;;;;;5062709;28;20534;-69
2022/08/26 04:14:08;;;;;;;5.13;4.73;;;27.90;61.40;;;;;;5034938;28;20425;-69
2022/08/26 04:16:37;;;;;;;5.73;5.23;;;27.90;61.40;;;;;;5053559;28;20552;-68
2022/08/26 04:19:06;;;;;;;5.07;4.67;;;27.90;61.40;;;;;;5066370;28;20790;-69
2022/08/26 04:21:37;;;;;;;6.00;5.53;;;27.90;61.40;;;;;;5074883;28;20506;-70
2022/08/26 04:24:05;;;;;;;5.70;5.30;;;27.90;61.50;;;;;;5074186;28;20452;-69
2022/08/26 04:26:40;;;;;;;5.40;5.00;;;27.90;61.50;;;;;;5068059;28;20482;-69
2022/08/26 04:29:13;;;;;;;5.40;5.00;;;27.90;61.50;;;;;;5034679;28;20440;-69
2022/08/26 04:31:42;;;;;;;5.00;4.70;;;27.90;61.50;;;;;;5057504;28;20512;-69
2022/08/26 04:34:11;;;;;;;5.57;5.17;;;27.90;61.50;;;;;;5074860;28;20422;-70
2022/08/26 04:36:42;;;;;;;5.60;5.23;;;27.90;61.50;;;;;;5055719;28;20454;-69
2022/08/26 04:39:13;;;;;;;4.83;4.53;;;27.90;61.50;;;;;;5064568;28;20545;-69
2022/08/26 04:41:43;;;;;;;5.40;5.10;;;27.90;61.50;;;;;;5051186;28;20442;-70
2022/08/26 04:44:12;;;;;;;5.67;5.27;;;27.90;61.60;;;;;;5057325;28;20491;-69
2022/08/26 04:46:41;;;;;;;4.97;4.67;;;27.90;61.60;;;;;;5054067;28;21041;-71
2022/08/26 04:49:12;;;;;;;4.97;4.67;;;27.90;61.50;;;;;;5063595;28;20440;-70
2022/08/26 04:51:40;;;;;;;5.53;5.03;;;27.90;61.60;;;;;;5057232;28;20433;-70
2022/08/26 04:54:12;;;;;;;5.00;4.60;;;27.90;61.60;;;;;;5074181;28;20506;-70
2022/08/26 04:56:48;;;;;;;5.47;5.13;;;27.90;61.70;;;;;;5068381;28;20531;-69
2022/08/26 04:59:17;;;;;;;4.77;4.47;;;27.90;61.70;;;;;;5053958;28;20434;-69
2022/08/26 05:01:47;;;;;;;5.60;5.20;;;27.90;61.70;;;;;;5061129;28;20916;-69
2022/08/26 05:04:16;;;;;;;6.27;5.87;;;27.90;61.70;;;;;;5063843;28;20481;-70
2022/08/26 05:06:46;;;;;;;5.17;4.77;;;27.90;61.70;;;;;;5053101;28;20463;-70
2022/08/26 05:09:17;;;;;;;5.73;5.33;;;27.80;61.70;;;;;;5054436;28;20492;-69
2022/08/26 05:11:47;;;;;;;6.37;5.97;;;27.90;61.70;;;;;;5054182;28;20959;-70
2022/08/26 05:14:20;;;;;;;5.30;4.90;;;27.80;61.70;;;;;;5052719;28;20453;-69
2022/08/26 05:16:49;;;;;;;5.80;5.40;;;27.90;61.70;;;;;;5046071;28;20483;-69
2022/08/26 05:19:19;;;;;;;5.60;5.20;;;27.90;61.70;;;;;;5053438;28;20463;-69
2022/08/26 05:21:48;;;;;;;5.97;5.57;;;27.80;61.70;;;;;;5053152;28;20846;-69
2022/08/26 05:24:17;;;;;;;5.63;5.23;;;27.80;61.70;;;;;;5053896;28;20479;-69
2022/08/26 05:26:47;;;;;;;5.70;5.30;;;27.80;61.70;;;;;;5060475;28;20559;-70
2022/08/26 05:29:15;;;;;;;5.60;5.20;;;27.80;61.70;;;;;;5052562;28;20467;-70
2022/08/26 05:31:44;;;;;;;5.50;5.20;;;27.80;61.70;;;;;;5053080;28;20908;-69
2022/08/26 05:34:12;;;;;;;5.17;4.77;;;27.90;61.70;;;;;;5080291;28;20832;-70
2022/08/26 05:36:41;;;;;;;5.37;5.07;;;27.90;61.70;;;;;;5033110;28;20439;-68
2022/08/26 05:39:09;;;;;;;5.20;4.90;;;27.90;61.70;;;;;;5033452;28;20816;-69
2022/08/26 05:41:40;;;;;;;5.77;5.30;;;27.90;61.70;;;;;;5046376;28;20543;-69
2022/08/26 05:44:12;;;;;;;5.83;5.43;;;27.90;61.70;;;;;;5053352;28;20529;-69
2022/08/26 05:46:43;;;;;;;4.80;4.50;;;27.90;61.70;;;;;;5051545;28;20793;-69
2022/08/26 05:49:12;;;;;;;5.30;4.90;;;27.90;61.60;;;;;;5054851;28;20972;-70
2022/08/26 05:51:45;;;;;;;5.57;5.07;;;27.90;61.50;;;;;;5053273;28;20525;-68
2022/08/26 05:54:15;;;;;;;5.90;5.50;;;27.90;61.60;;;;;;5062661;28;20802;-69
2022/08/26 05:56:50;;;;;;;5.63;5.27;;;27.90;61.50;;;;;;5039660;28;20461;-69
2022/08/26 05:59:20;;;;;;;5.20;4.90;;;27.90;61.50;;;;;;5052500;28;20429;-69
2022/08/26 06:01:53;;;;;;;5.60;5.10;;;27.90;61.50;;;;;;5055967;28;20464;-69
2022/08/26 06:04:22;;;;;;;5.67;5.27;;;27.90;61.50;;;;;;5072350;28;20470;-69
2022/08/26 06:06:54;;;;;;;5.67;5.30;;;27.90;61.50;;;;;;5069128;28;20477;-69
2022/08/26 06:09:22;;;;;;;5.90;5.50;;;27.90;61.50;;;;;;5072649;28;20462;-69
2022/08/26 06:11:51;;;;;;;5.80;5.30;;;27.90;61.50;;;;;;5038634;28;20958;-69
2022/08/26 06:14:22;;;;;;;5.57;5.23;;;27.90;61.50;;;;;;5052159;28;20436;-69
2022/08/26 06:16:50;;;;;;;5.20;4.90;;;27.90;61.50;;;;;;5061275;28;20945;-69
2022/08/26 06:19:20;;;;;;;5.27;4.87;;;27.90;61.40;;;;;;5069776;28;20430;-69
2022/08/26 06:21:50;;;;;;;5.33;5.03;;;27.90;61.40;;;;;;5048720;28;20456;-68
2022/08/26 06:27:12;;;;;;;5.40;5.00;;;27.90;61.40;;;;;;5032406;28;20935;-69
2022/08/26 06:29:42;;;;;;;5.70;5.30;;;27.90;61.40;;;;;;5038321;28;20444;-69
2022/08/26 06:32:10;;;;;;;5.90;5.60;;;28.00;61.40;;;;;;5032331;28;20445;-69
2022/08/26 06:34:38;;;;;;;6.20;5.80;;;28.00;61.30;;;;;;5031919;28;20433;-69
2022/08/26 06:37:07;;;;;;;5.83;5.43;;;28.00;61.30;;;;;;5031895;28;20437;-69
2022/08/26 06:39:35;;;;;;;5.60;5.20;;;28.00;61.30;;;;;;5067022;28;20480;-69
2022/08/26 06:42:08;;;;;;;5.50;5.10;;;28.00;61.30;;;;;;5072062;28;20803;-69
2022/08/26 06:44:38;;;;;;;5.50;5.10;;;28.00;61.30;;;;;;5072076;28;20453;-70
2022/08/26 06:47:09;;;;;;;5.30;4.93;;;28.00;61.30;;;;;;5056035;28;20566;-74
2022/08/26 06:49:37;;;;;;;5.50;5.20;;;28.00;61.30;;;;;;5056162;28;20515;-70
2022/08/26 06:52:06;;;;;;;5.40;5.10;;;28.00;61.20;;;;;;5052272;28;20457;-69
2022/08/26 06:54:35;;;;;;;5.23;4.90;;;28.00;61.20;;;;;;5052400;28;20497;-68
2022/08/26 06:57:06;;;;;;;5.43;5.03;;;28.00;61.20;;;;;;5051824;28;20419;-71
2022/08/26 06:59:34;;;;;;;5.80;5.50;;;28.00;61.20;;;;;;5051832;28;20506;-75
2022/08/26 07:02:02;;;;;;;5.37;4.97;;;28.00;61.20;;;;;;5041766;28;20443;-70
2022/08/26 07:04:33;;;;;;;5.70;5.30;;;28.00;61.20;;;;;;5036799;28;21041;-69
2022/08/26 07:07:02;;;;;;;5.63;5.30;;;28.00;61.20;;;;;;5041858;28;20443;-69
2022/08/26 07:09:32;;;;;;;5.47;5.17;;;28.10;61.10;;;;;;5031891;28;20445;-69
2022/08/26 07:12:01;;;;;;;5.37;5.07;;;28.10;61.10;;;;;;5031834;28;20837;-68
2022/08/26 07:14:30;;;;;;;5.57;5.17;;;28.10;61.10;;;;;;5038791;28;20482;-69
2022/08/26 07:17:00;;;;;;;5.97;5.67;;;28.10;61.10;;;;;;5051159;28;20976;-69
2022/08/26 07:19:28;;;;;;;5.93;5.53;;;28.10;61.10;;;;;;5049690;28;20494;-69
2022/08/26 07:22:02;;;;;;;5.00;4.60;;;28.10;61.00;;;;;;5048542;28;20540;-69
2022/08/26 07:24:32;;;;;;;5.87;5.47;;;28.10;61.00;;;;;;5069959;28;20474;-69
2022/08/26 07:27:04;;;;;;;5.17;4.77;;;28.10;61.00;;;;;;5052375;28;20436;-68
2022/08/26 07:29:33;;;;;;;5.77;5.37;;;28.10;61.00;;;;;;5056174;28;20428;-69
2022/08/26 07:32:01;;;;;;;6.20;5.80;;;28.10;61.00;;;;;;5062067;28;20833;-68
2022/08/26 07:34:31;;;;;;;5.40;5.10;;;28.10;61.00;;;;;;5059611;28;20456;-69
2022/08/26 07:37:02;;;;;;;5.40;5.03;;;28.10;60.90;;;;;;5055377;28;20506;-69
2022/08/26 07:39:31;;;;;;;5.07;4.77;;;28.10;60.90;;;;;;5054375;28;20462;-69
2022/08/26 07:42:01;;;;;;;5.70;5.30;;;28.10;60.90;;;;;;5047077;28;20906;-69
2022/08/26 07:44:35;;;;;;;6.00;5.60;;;28.10;60.90;;;;;;5066796;28;20441;-70
2022/08/26 07:47:04;;;;;;;5.77;5.37;;;28.20;60.90;;;;;;5055478;28;20442;-69
2022/08/26 07:49:53;;;;;;;5.87;5.47;;;28.20;60.90;;;;;;5037775;28;20448;-69
2022/08/26 07:52:24;;;;;;;6.17;5.67;;;28.20;60.90;;;;;;5035068;28;20497;-68
2022/08/26 07:54:55;;;;;;;6.00;5.60;;;28.20;60.90;;;;;;5040755;28;20492;-70
2022/08/26 07:57:23;;;;;;;4.90;4.60;;;28.20;60.90;;;;;;5055254;28;20436;-69
2022/08/26 07:59:51;;;;;;;5.77;5.40;;;28.20;60.90;;;;;;5069119;28;20932;-69
2022/08/26 08:02:24;;;;;;;5.90;5.50;;;28.20;60.90;;;;;;5074287;28;20447;-69
2022/08/26 08:04:53;;;;;;;5.90;5.43;;;28.20;60.90;;;;;;5058582;28;20484;-72
2022/08/26 08:07:23;;;;;;;5.30;4.90;;;28.20;60.90;;;;;;5046647;28;20467;-68
2022/08/26 08:10:07;;;;;;;6.07;5.57;;;28.20;60.80;;;;;;5069717;28;20450;-69
2022/08/26 08:12:38;;;;;;;6.00;5.50;;;28.20;60.80;;;;;;5049219;28;20975;-69
2022/08/26 08:15:12;;;;;;;5.10;4.77;;;28.20;60.80;;;;;;5036076;28;20493;-69
2022/08/26 08:17:41;;;;;;;5.63;5.33;;;28.20;60.80;;;;;;5072622;28;20487;-69
2022/08/26 08:20:12;;;;;;;5.50;5.20;;;28.20;60.90;;;;;;5060623;28;20444;-69
2022/08/26 08:22:42;;;;;;;5.83;5.43;;;28.20;60.80;;;;;;5074689;28;20458;-69
2022/08/26 08:25:11;;;;;;;5.57;5.20;;;28.20;60.80;;;;;;5065452;28;20455;-71
2022/08/26 08:27:41;;;;;;;5.23;4.90;;;28.20;60.80;;;;;;5054941;28;20463;-69
2022/08/26 08:30:10;;;;;;;5.77;5.37;;;28.20;60.90;;;;;;5042896;28;20443;-69
2022/08/26 08:32:42;;;;;;;5.83;5.43;;;28.20;60.80;;;;;;5055928;28;20454;-69
2022/08/26 08:35:12;;;;;;;5.20;4.90;;;28.30;60.80;;;;;;5063021;28;20505;-68
2022/08/26 08:37:42;;;;;;;5.57;5.17;;;28.20;60.70;;;;;;5067158;28;20479;-69
2022/08/26 08:40:14;;;;;;;6.13;5.73;;;28.30;60.70;;;;;;5068067;28;21110;-69
2022/08/26 08:42:46;;;;;;;5.40;5.10;;;28.30;60.80;;;;;;5074748;28;20898;-69
2022/08/26 08:45:20;;;;;;;5.33;4.93;;;28.30;60.80;;;;;;5072274;28;20459;-69
2022/08/26 08:47:53;;;;;;;6.33;5.93;;;28.30;60.70;;;;;;5050685;28;20495;-69
2022/08/26 08:50:26;;;;;;;5.13;4.73;;;28.30;60.70;;;;;;5054196;28;20462;-69
2022/08/26 08:53:09;;;;;;;5.97;5.57;;;28.30;60.70;;;;;;5046261;28;20497;-69
2022/08/26 08:55:56;;;;;;;5.70;5.30;;;28.30;60.70;;;;;;5061343;28;20442;-72
2022/08/26 08:58:31;;;;;;;5.10;4.80;;;28.30;60.70;;;;;;5070193;28;20910;-69
2022/08/26 09:01:05;;;;;;;5.37;5.03;;;28.30;60.70;;;;;;5073626;28;20763;-69
2022/08/26 09:03:47;;;;;;;5.60;5.20;;;28.30;60.70;;;;;;5073772;28;20493;-71
2022/08/26 09:06:19;;;;;;;5.23;4.93;;;28.30;60.70;;;;;;5035579;28;20768;-71
2022/08/26 09:08:50;;;;;;;5.67;5.27;;;28.30;60.70;;;;;;5056701;28;20471;-69
2022/08/26 09:11:19;;;;;;;5.57;5.17;;;28.30;60.70;;;;;;5053725;28;20441;-69
2022/08/26 09:13:51;;;;;;;6.33;5.83;;;28.30;60.70;;;;;;5074051;28;20424;-70
2022/08/26 09:16:27;;;;;;;5.17;4.87;;;28.30;61.00;;;;;;5072899;28;20876;-69
2022/08/26 09:19:15;;;;;;;5.50;5.17;;;28.40;60.70;;;;;;5061534;28;20448;-69
2022/08/26 09:21:54;;;;;;;5.17;4.87;;;28.40;60.60;;;;;;5041619;28;20442;-71
2022/08/26 09:24:25;;;;;;;4.80;4.60;;;28.40;60.60;;;;;;5038142;28;20454;-69
2022/08/26 09:26:57;;;;;;;4.70;4.40;;;28.40;60.50;;;;;;5038976;28;20453;-70
2022/08/26 09:29:28;;;;;;;5.70;5.20;;;28.40;60.60;;;;;;5073549;28;20469;-68
2022/08/26 09:32:14;;;;;;;5.27;4.87;;;28.40;60.50;;;;;;5045722;28;20496;-69
2022/08/26 09:34:58;;;;;;;5.17;4.87;;;28.40;60.60;;;;;;5038344;28;20497;-69
2022/08/26 09:37:35;;;;;;;4.90;4.60;;;28.40;60.50;;;;;;5052176;28;20460;-69
2022/08/26 09:40:28;;;;;;;5.53;5.10;;;28.40;60.50;;;;;;5053188;28;20542;-69
2022/08/26 09:43:14;;;;;;;5.30;4.93;;;28.40;60.50;;;;;;5043904;28;20575;-69
2022/08/26 09:45:46;;;;;;;5.80;5.40;;;28.40;60.40;;;;;;5034946;28;20452;-68
2022/08/26 09:48:29;;;;;;;4.83;4.43;;;28.40;60.40;;;;;;5054208;28;20543;-69
2022/08/26 09:51:00;;;;;;;5.77;5.37;;;28.40;60.40;;;;;;5047115;28;20449;-70
2022/08/26 09:53:30;;;;;;;5.03;4.73;;;28.40;60.40;;;;;;5072768;28;20443;-69
2022/08/26 09:56:17;;;;;;;5.80;5.30;;;28.40;60.40;;;;;;5072577;28;20498;-69
2022/08/26 09:58:47;;;;;;;5.37;5.07;;;28.40;60.40;;;;;;5073315;28;20441;-69
2022/08/26 10:01:24;;;;;;;4.80;4.50;;;28.40;60.40;;;;;;5072086;28;20448;-68
2022/08/26 10:03:52;;;;;;;5.53;5.20;;;28.40;60.40;;;;;;5067544;28;20836;-69
2022/08/26 10:06:25;;;;;;;5.73;5.33;;;28.50;60.40;;;;;;5040729;28;20498;-69
2022/08/26 10:08:57;;;;;;;5.23;4.93;;;28.40;60.30;;;;;;5052413;28;20472;-68
2022/08/26 10:11:34;;;;;;;5.80;5.40;;;28.40;60.30;;;;;;5052621;28;20441;-69
2022/08/26 10:14:08;;;;;;;5.47;5.07;;;28.50;60.30;;;;;;5054575;28;20922;-70
2022/08/26 10:16:50;;;;;;;5.23;4.93;;;28.50;60.30;;;;;;5031953;28;20522;-69
2022/08/26 10:19:25;;;;;;;5.60;5.20;;;28.50;60.30;;;;;;5032113;28;20431;-69
2022/08/26 10:22:15;;;;;;;5.20;4.90;;;28.50;60.30;;;;;;5058733;28;20522;-69
2022/08/26 10:24:48;;;;;;;4.80;4.57;;;28.50;60.30;;;;;;5061984;28;20531;-69
2022/08/26 10:27:30;;;;;;;5.70;5.30;;;28.50;60.20;;;;;;5051695;28;20800;-68
2022/08/26 10:30:05;;;;;;;5.17;4.77;;;28.50;60.20;;;;;;5052785;28;20469;-69
2022/08/26 10:32:37;;;;;;;5.80;5.33;;;28.50;60.20;;;;;;5038071;28;20442;-69
2022/08/26 10:35:12;;;;;;;5.50;5.20;;;28.50;60.20;;;;;;5039951;28;20547;-74
2022/08/26 10:37:45;;;;;;;4.70;4.40;;;28.50;60.20;;;;;;5045817;28;20860;-74
2022/08/26 10:40:23;;;;;;;5.57;5.17;;;28.50;60.20;;;;;;5032735;28;20461;-74
2022/08/26 10:42:56;;;;;;;5.50;5.10;;;28.50;60.20;;;;;;5037089;28;20464;-74
2022/08/26 10:45:27;;;;;;;4.73;4.43;;;28.60;60.10;;;;;;5066960;28;20476;-76
2022/08/26 10:48:00;;;;;;;5.70;5.20;;;28.60;60.10;;;;;;5063166;28;20439;-74
2022/08/26 10:50:33;;;;;;;5.37;4.97;;;28.60;60.10;;;;;;5071325;28;21020;-74
2022/08/26 10:53:11;;;;;;;5.00;4.60;;;28.60;60.10;;;;;;5032389;28;20429;-75
2022/08/26 10:55:47;;;;;;;5.80;5.40;;;28.60;60.10;;;;;;5048604;28;20834;-74
2022/08/26 10:58:36;;;;;;;5.10;4.70;;;28.60;60.10;;;;;;5051155;28;20484;-74
2022/08/26 11:04:10;;;;;;;5.17;4.87;;;28.60;60.10;;;;;;5058431;28;20465;-74
2022/08/26 11:06:38;;;;;;;5.00;4.70;;;28.60;60.10;;;;;;5071731;28;20425;-75
2022/08/26 11:09:09;;;;;;;4.80;4.50;;;28.60;60.00;;;;;;5071834;28;20494;-74
2022/08/26 11:11:50;;;;;;;5.17;4.77;;;28.70;60.00;;;;;;5072196;28;20446;-75
2022/08/26 11:14:37;;;;;;;5.03;4.73;;;28.60;60.00;;;;;;5052514;28;20842;-75
2022/08/26 11:17:55;;;;;;;5.47;5.17;;;28.60;60.10;;;;;;5071510;28;20479;-74
2022/08/26 11:20:34;;;;;;;5.50;5.13;;;28.60;60.00;;;;;;5043949;28;20445;-74
2022/08/26 11:23:36;;;;;;;5.00;4.63;;;28.70;60.00;;;;;;5061899;28;20471;-77
2022/08/26 11:26:16;;;;;;;4.97;4.57;;;28.60;60.00;;;;;;5017104;28;20531;-75
2022/08/26 11:29:05;;;;;;;5.23;4.83;;;28.60;60.10;;;;;;5063831;28;20455;-74
2022/08/26 11:31:56;;;;;;;4.50;4.20;;;28.60;60.10;;;;;;5031521;28;20496;-74
2022/08/26 11:34:58;;;;;;;4.10;3.83;;;28.60;60.10;;;;;;5031609;28;20478;-74
2022/08/26 11:37:33;;;;;;;4.87;4.47;;;28.60;60.00;;;;;;5030680;28;20524;-74
2022/08/26 11:40:06;;;;;;;4.47;4.17;;;28.50;60.30;;;;;;5029421;28;20445;-74
2022/08/26 11:42:39;;;;;;;5.10;4.70;;;28.50;60.30;;;;;;5030904;28;20475;-73
2022/08/26 11:45:19;;;;;;;4.80;4.50;;;28.50;60.30;;;;;;5054666;28;20494;-74
2022/08/26 11:47:48;;;;;;;4.63;4.33;;;28.50;60.30;;;;;;5068263;28;20465;-74
2022/08/26 11:50:22;;;;;;;5.00;4.60;;;28.50;60.30;;;;;;5067642;28;21011;-73
2022/08/26 11:52:55;;;;;;;4.10;3.90;;;28.50;60.30;;;;;;5047850;28;20485;-74
2022/08/26 11:55:24;;;;;;;4.37;4.07;;;28.50;60.30;;;;;;5045312;28;20859;-74
2022/08/26 11:57:56;;;;;;;5.07;4.67;;;28.50;60.20;;;;;;5038541;28;20916;-74
2022/08/26 12:00:28;;;;;;;4.57;4.37;;;28.50;60.30;;;;;;5071807;28;20449;-74
2022/08/26 12:03:07;;;;;;;5.00;4.70;;;28.50;60.30;;;;;;5071181;28;20907;-73
2022/08/26 12:05:43;;;;;;;4.57;4.27;;;28.40;60.40;;;;;;5071577;28;20430;-74
2022/08/26 12:08:16;;;;;;;4.90;4.60;;;28.50;60.40;;;;;;5064602;28;20850;-74
2022/08/26 12:10:44;;;;;;;5.20;4.17;;;28.50;60.30;;;;;;5051646;28;20998;-74
2022/08/26 12:13:21;;;;;;;4.97;4.60;;;28.50;60.30;;;;;;5050511;28;20450;-74
2022/08/26 12:15:53;;;;;;;4.67;4.37;;;28.50;60.30;;;;;;5042702;28;20449;-75
2022/08/26 12:18:26;;;;;;;4.50;4.23;;;28.50;60.30;;;;;;5034480;28;20439;-74
2022/08/26 12:21:00;;;;;;;5.27;4.90;;;28.50;60.40;;;;;;5034900;28;20449;-75
2022/08/26 12:23:41;;;;;;;4.83;4.43;;;28.50;60.30;;;;;;5035159;28;20920;-74
2022/08/26 12:26:18;;;;;;;4.10;3.90;;;28.50;60.30;;;;;;5036663;28;20548;-76
2022/08/26 12:28:49;;;;;;;4.70;4.40;;;28.50;60.30;;;;;;5049875;28;20439;-74
2022/08/26 12:31:27;;;;;;;4.37;4.07;;;28.60;60.20;;;;;;5074358;28;20464;-75
2022/08/26 12:33:59;;;;;;;4.80;4.37;;;28.60;60.20;;;;;;5074289;28;20448;-74
2022/08/26 12:36:30;;;;;;;4.57;4.27;;;28.60;60.20;;;;;;5068709;28;20476;-74
2022/08/26 12:39:09;;;;;;;4.60;4.30;;;28.60;60.20;;;;;;5054663;28;20430;-74
2022/08/26 12:41:49;;;;;;;4.87;4.57;;;28.60;60.20;;;;;;5073367;28;20452;-75
2022/08/26 12:44:38;;;;;;;4.33;4.00;;;28.60;60.20;;;;;;5050412;28;20523;-74
2022/08/26 12:47:09;;;;;;;3.80;3.60;;;28.60;60.10;;;;;;5054204;28;20445;-74
2022/08/26 12:49:41;;;;;;;4.33;4.10;;;28.60;60.20;;;;;;5053926;28;20497;-75
2022/08/26 12:52:28;;;;;;;4.00;3.80;;;28.60;60.20;;;;;;5055931;28;20531;-74
2022/08/26 12:54:59;;;;;;;4.10;3.90;;;28.60;60.20;;;;;;5053353;28;20449;-73
2022/08/26 12:57:30;;;;;;;4.20;3.90;;;28.60;60.10;;;;;;5044824;28;20518;-75
2022/08/26 13:00:25;;;;;;;4.97;4.67;;;28.60;60.10;;;;;;5054771;28;20845;-74
2022/08/26 13:02:56;;;;;;;4.27;3.97;;;28.60;60.00;;;;;;5073818;28;20438;-76
2022/08/26 13:05:31;;;;;;;4.30;4.10;;;28.60;60.10;;;;;;5073748;28;20427;-74
2022/08/26 13:08:11;;;;;;;4.10;3.87;;;28.70;60.00;;;;;;5073934;28;20895;-75
2022/08/26 13:10:42;;;;;;;3.90;3.60;;;28.70;59.90;;;;;;5067387;28;20943;-74
2022/08/26 13:13:10;;;;;;;4.30;4.10;;;28.70;59.90;;;;;;5054276;28;21036;-74
2022/08/26 13:15:38;;;;;;;4.80;4.50;;;28.70;59.80;;;;;;5039605;28;20484;-75
2022/08/26 13:18:10;;;;;;;4.67;4.37;;;28.70;59.80;;;;;;5033544;28;20471;-76
2022/08/26 13:20:43;;;;;;;4.47;4.07;;;28.70;59.80;;;;;;5055789;28;20530;-74
2022/08/26 13:23:11;;;;;;;4.20;3.90;;;28.70;59.80;;;;;;5054011;28;20453;-74
2022/08/26 13:25:40;;;;;;;4.90;4.60;;;28.70;59.80;;;;;;5085988;28;20989;-75